createdAt,value
2019-02-16T00:00:43.301Z,99505.42
2019-02-16T00:03:12.582Z,99502.36
2019-02-16T00:05:41.828Z,99503.69
2019-02-16T00:08:12.574Z,99502.84
2019-02-16T00:10:41.893Z,99494.62
2019-02-16T00:13:11.176Z,99493.27
2019-02-16T00:15:40.435Z,99486.45
2019-02-16T00:18:09.686Z,99492.19
2019-02-16T00:20:38.950Z,99489.92
2019-02-16T00:23:08.208Z,99491.73
2019-02-16T00:25:37.476Z,99490.92
2019-02-16T00:28:06.745Z,99491.22
2019-02-16T00:30:36.056Z,99489.36
2019-02-16T00:33:06.380Z,99493.42
2019-02-16T00:35:35.672Z,99499.21
2019-02-16T00:38:04.950Z,99501.62
2019-02-16T00:40:34.234Z,99497.36
2019-02-16T00:43:03.486Z,99502.62
2019-02-16T00:45:32.756Z,99502.09
2019-02-16T00:48:02.020Z,99501.78
2019-02-16T00:50:31.301Z,99502.06
2019-02-16T00:53:00.547Z,99506.92
2019-02-16T00:55:29.842Z,99508.78
2019-02-16T00:57:59.120Z,99505.59
2019-02-16T01:00:28.386Z,99508.84
2019-02-16T01:02:57.660Z,99511.47
2019-02-16T01:05:26.936Z,99506.41
2019-02-16T01:07:56.273Z,99514.11
2019-02-16T01:10:25.584Z,99510.91
2019-02-16T01:12:54.864Z,99507.09
2019-02-16T01:15:24.132Z,99498.18
2019-02-16T01:17:53.378Z,99497.31
2019-02-16T01:20:22.627Z,99501.46
2019-02-16T01:22:51.927Z,99496.78
2019-02-16T01:25:21.178Z,99491.83
2019-02-16T01:27:50.447Z,99483.30
2019-02-16T01:30:19.728Z,99486.69
2019-02-16T01:32:48.991Z,99484.92
2019-02-16T01:35:18.295Z,99479.54
2019-02-16T01:37:47.546Z,99474.55
2019-02-16T01:40:16.907Z,99476.03
2019-02-16T01:42:46.159Z,99467.70
2019-02-16T01:45:15.422Z,99466.81
2019-02-16T01:47:44.688Z,99462.72
2019-02-16T01:50:13.929Z,99464.05
2019-02-16T01:52:43.185Z,99466.08
2019-02-16T01:55:12.452Z,99462.09
2019-02-16T01:57:41.703Z,99456.38
2019-02-16T02:00:11.506Z,99459.53
2019-02-16T02:02:40.786Z,99455.70
2019-02-16T02:05:10.583Z,99456.55
2019-02-16T02:07:39.908Z,99451.17
2019-02-16T02:10:10.052Z,99452.63
2019-02-16T02:12:39.639Z,99446.38
2019-02-16T02:15:09.731Z,99447.36
2019-02-16T02:17:39.014Z,99444.22
2019-02-16T02:20:08.895Z,99439.34
2019-02-16T02:22:38.247Z,99443.20
2019-02-16T02:25:09.793Z,99437.41
2019-02-16T02:27:39.039Z,99440.13
2019-02-16T02:30:09.561Z,99441.68
2019-02-16T02:32:38.831Z,99439.36
2019-02-16T02:35:08.313Z,99440.86
2019-02-16T02:37:37.623Z,99440.42
2019-02-16T02:40:07.112Z,99435.98
2019-02-16T02:42:36.378Z,99428.54
2019-02-16T02:45:07.039Z,99430.38
2019-02-16T02:47:36.284Z,99429.01
2019-02-16T02:50:05.891Z,99430.22
2019-02-16T02:52:35.146Z,99433.98
2019-02-16T02:55:04.859Z,99436.55
2019-02-16T02:57:34.134Z,99426.05
2019-02-16T03:00:04.873Z,99432.62
2019-02-16T03:02:34.155Z,99430.16
2019-02-16T03:05:03.419Z,99430.78
2019-02-16T03:07:32.662Z,99431.28
2019-02-16T03:10:01.937Z,99431.23
2019-02-16T03:12:31.187Z,99436.55
2019-02-16T03:15:02.281Z,99438.05
2019-02-16T03:17:31.529Z,99440.73
2019-02-16T03:20:00.782Z,99434.83
2019-02-16T03:23:26.390Z,99443.61
2019-02-16T03:26:22.796Z,99441.17
2019-02-16T03:29:11.753Z,99446.58
2019-02-16T03:32:16.581Z,99445.73
2019-02-16T03:34:55.295Z,99449.39
2019-02-16T03:38:26.757Z,99450.95
2019-02-16T03:40:56.062Z,99445.18
2019-02-16T03:43:25.316Z,99447.19
2019-02-16T03:45:54.571Z,99453.19
2019-02-16T03:48:23.846Z,99461.62
2019-02-16T03:50:53.106Z,99458.02
2019-02-16T03:53:24.287Z,99460.87
2019-02-16T03:55:53.559Z,99462.42
2019-02-16T03:58:22.810Z,99465.52
2019-02-16T04:00:52.089Z,99461.77
2019-02-16T04:03:21.343Z,99463.69
2019-02-16T04:05:50.643Z,99466.00
2019-02-16T04:08:19.933Z,99461.77
2019-02-16T04:10:49.197Z,99463.89
2019-02-16T04:13:18.455Z,99466.86
2019-02-16T04:15:47.749Z,99464.81
2019-02-16T04:18:17.074Z,99462.39
2019-02-16T04:20:46.327Z,99458.31
2019-02-16T04:23:15.581Z,99456.28
2019-02-16T04:25:44.852Z,99456.08
2019-02-16T04:28:14.105Z,99455.19
2019-02-16T04:30:43.375Z,99455.47
2019-02-16T04:33:12.626Z,99453.76
2019-02-16T04:35:41.909Z,99456.33
2019-02-16T04:38:11.167Z,99461.00
2019-02-16T04:40:40.448Z,99452.09
2019-02-16T04:43:09.813Z,99455.39
2019-02-16T04:45:39.066Z,99453.03
2019-02-16T04:48:08.337Z,99449.64
2019-02-16T04:50:37.605Z,99448.34
2019-02-16T04:53:06.897Z,99448.39
2019-02-16T04:55:36.129Z,99454.91
2019-02-16T04:58:05.381Z,99449.81
2019-02-16T05:00:34.676Z,99449.69
2019-02-16T05:03:03.928Z,99449.81
2019-02-16T05:05:33.178Z,99445.78
2019-02-16T05:08:02.469Z,99445.58
2019-02-16T05:10:31.767Z,99451.59
2019-02-16T05:13:01.017Z,99438.37
2019-02-16T05:15:30.311Z,99437.23
2019-02-16T05:17:59.586Z,99433.20
2019-02-16T05:20:28.847Z,99436.66
2019-02-16T05:22:58.166Z,99433.37
2019-02-16T05:25:27.451Z,99434.63
2019-02-16T05:27:56.704Z,99430.95
2019-02-16T05:30:26.041Z,99437.37
2019-02-16T05:32:55.289Z,99433.41
2019-02-16T05:35:24.542Z,99436.09
2019-02-16T05:37:53.828Z,99435.03
2019-02-16T05:40:23.107Z,99433.22
2019-02-16T05:42:52.381Z,99431.63
2019-02-16T05:45:21.652Z,99429.44
2019-02-16T05:47:50.907Z,99428.81
2019-02-16T05:50:20.181Z,99435.14
2019-02-16T05:52:54.378Z,99429.82
2019-02-16T05:55:20.419Z,99430.02
2019-02-16T05:57:49.691Z,99432.53
2019-02-16T06:00:21.068Z,99422.67
2019-02-16T06:02:50.356Z,99423.25
2019-02-16T06:05:19.607Z,99420.56
2019-02-16T06:07:48.883Z,99421.91
2019-02-16T06:10:18.133Z,99407.73
2019-02-16T06:12:47.478Z,99403.61
2019-02-16T06:15:16.753Z,99405.23
2019-02-16T06:17:45.999Z,99407.39
2019-02-16T06:20:15.271Z,99410.99
2019-02-16T06:22:44.520Z,99410.56
2019-02-16T06:25:14.340Z,99407.25
2019-02-16T06:27:43.609Z,99406.05
2019-02-16T06:30:12.875Z,99409.73
2019-02-16T06:32:42.131Z,99418.95
2019-02-16T06:35:27.336Z,99411.91
2019-02-16T06:37:56.588Z,99419.81
2019-02-16T06:40:25.843Z,99416.93
2019-02-16T06:42:55.159Z,99418.47
2019-02-16T06:45:24.439Z,99413.92
2019-02-16T06:47:53.942Z,99415.49
2019-02-16T06:50:24.320Z,99426.76
2019-02-16T06:52:53.565Z,99433.19
2019-02-16T06:55:24.495Z,99428.09
2019-02-16T06:57:55.263Z,99419.77
2019-02-16T07:00:27.469Z,99419.95
2019-02-16T07:02:56.690Z,99427.23
2019-02-16T07:05:25.939Z,99420.82
2019-02-16T07:07:55.212Z,99424.08
2019-02-16T07:10:24.469Z,99420.34
2019-02-16T07:12:53.755Z,99423.27
2019-02-16T07:15:23.100Z,99423.75
2019-02-16T07:18:20.721Z,99419.95
2019-02-16T07:20:50.013Z,99410.91
2019-02-16T07:23:22.503Z,99415.27
2019-02-16T07:25:50.280Z,99422.05
2019-02-16T07:28:19.550Z,99415.27
2019-02-16T07:30:48.836Z,99423.97
2019-02-16T07:33:18.087Z,99423.20
2019-02-16T07:35:47.425Z,99412.55
2019-02-16T07:38:16.711Z,99414.41
2019-02-16T07:40:47.709Z,99416.97
2019-02-16T07:43:35.927Z,99414.05
2019-02-16T07:46:11.334Z,99422.67
2019-02-16T07:49:02.752Z,99421.31
2019-02-16T07:51:53.095Z,99424.59
2019-02-16T07:54:37.945Z,99415.85
2019-02-16T07:57:12.629Z,99416.35
2019-02-16T07:59:54.151Z,99422.20
2019-02-16T08:02:49.999Z,99415.42
2019-02-16T08:05:32.408Z,99420.66
2019-02-16T08:08:15.077Z,99422.73
2019-02-16T08:10:58.236Z,99427.35
2019-02-16T08:13:53.528Z,99424.87
2019-02-16T08:16:30.262Z,99426.62
2019-02-16T08:19:39.214Z,99424.08
2019-02-16T08:22:18.855Z,99428.86
2019-02-16T08:25:03.703Z,99433.51
2019-02-16T08:27:46.033Z,99439.73
2019-02-16T08:30:42.383Z,99437.30
2019-02-16T08:33:22.796Z,99434.52
2019-02-16T08:36:02.015Z,99443.66
2019-02-16T08:38:40.544Z,99444.84
2019-02-16T08:41:27.696Z,99449.11
2019-02-16T08:44:06.997Z,99447.61
2019-02-16T08:47:14.187Z,99443.27
2019-02-16T08:50:10.492Z,99445.20
2019-02-16T08:53:02.899Z,99447.53
2019-02-16T08:55:49.274Z,99442.61
2019-02-16T08:58:36.432Z,99442.09
2019-02-16T09:01:27.475Z,99441.90
2019-02-16T09:04:14.030Z,99446.14
2019-02-16T09:07:08.630Z,99440.84
2019-02-16T09:09:51.784Z,99441.80
2019-02-16T09:12:36.190Z,99436.37
2019-02-16T09:15:25.312Z,99433.69
2019-02-16T09:18:22.552Z,99432.37
2019-02-16T09:21:19.954Z,99428.40
2019-02-16T09:24:23.671Z,99431.63
2019-02-16T09:27:20.928Z,99430.61
2019-02-16T09:30:18.511Z,99430.13
2019-02-16T09:33:09.869Z,99431.20
2019-02-16T09:35:54.355Z,99427.16
2019-02-16T09:38:42.471Z,99427.95
2019-02-16T09:41:46.095Z,99430.60
2019-02-16T09:44:36.936Z,99431.23
2019-02-16T09:47:25.931Z,99429.23
2019-02-16T09:50:05.532Z,99432.91
2019-02-16T09:52:54.012Z,99430.55
2019-02-16T09:55:40.391Z,99432.16
2019-02-16T09:58:33.962Z,99433.92
2019-02-16T10:01:25.251Z,99437.30
2019-02-16T10:04:12.432Z,99425.49
2019-02-16T10:07:06.910Z,99428.70
2019-02-16T10:09:54.803Z,99429.84
2019-02-16T10:12:34.104Z,99432.33
2019-02-16T10:15:21.084Z,99427.33
2019-02-16T10:18:24.626Z,99428.23
2019-02-16T10:21:12.856Z,99422.28
2019-02-16T10:23:59.812Z,99425.89
2019-02-16T10:26:48.361Z,99427.11
2019-02-16T10:29:39.618Z,99425.69
2019-02-16T10:32:43.187Z,99422.68
2019-02-16T10:35:41.415Z,99419.20
2019-02-16T10:38:45.001Z,99419.20
2019-02-16T10:41:33.967Z,99413.41
2019-02-16T10:44:20.723Z,99406.56
2019-02-16T10:47:11.772Z,99404.31
2019-02-16T10:49:55.156Z,99397.26
2019-02-16T10:52:41.154Z,99400.90
2019-02-16T10:55:41.503Z,99396.68
2019-02-16T10:58:28.010Z,99381.59
2019-02-16T11:01:05.309Z,99379.81
2019-02-16T11:03:54.031Z,99370.83
2019-02-16T11:06:42.335Z,99373.30
2019-02-16T11:09:29.228Z,99359.95
2019-02-16T11:12:16.692Z,99361.08
2019-02-16T11:14:59.018Z,99360.39
2019-02-16T11:17:59.411Z,99357.75
2019-02-16T11:20:53.745Z,99361.05
2019-02-16T11:23:47.994Z,99353.59
2019-02-16T11:26:46.840Z,99352.55
2019-02-16T11:29:28.234Z,99341.53
2019-02-16T11:32:16.992Z,99347.11
2019-02-16T11:35:04.437Z,99338.82
2019-02-16T11:37:53.719Z,99340.56
2019-02-16T11:40:49.864Z,99338.09
2019-02-16T11:43:34.676Z,99336.66
2019-02-16T11:46:24.882Z,99332.97
2019-02-16T11:49:09.659Z,99327.69
2019-02-16T11:52:04.397Z,99322.91
2019-02-16T11:54:45.972Z,99319.08
2019-02-16T11:57:34.311Z,99320.59
2019-02-16T12:00:22.817Z,99315.87
2019-02-16T12:03:03.136Z,99313.38
2019-02-16T12:05:49.959Z,99298.22
2019-02-16T12:08:47.140Z,99288.53
2019-02-16T12:11:38.179Z,99297.75
2019-02-16T12:14:17.877Z,99293.30
2019-02-16T12:17:12.219Z,99294.47
2019-02-16T12:19:57.120Z,99297.67
2019-02-16T12:22:45.870Z,99291.41
2019-02-16T12:25:32.056Z,99290.92
2019-02-16T12:28:10.740Z,99284.20
2019-02-16T12:30:55.226Z,99286.34
2019-02-16T12:33:42.292Z,99284.13
2019-02-16T12:36:29.444Z,99275.21
2019-02-16T12:39:29.879Z,99280.25
2019-02-16T12:42:08.569Z,99276.05
2019-02-16T12:44:47.985Z,99265.33
2019-02-16T12:47:25.320Z,99263.95
2019-02-16T12:50:19.470Z,99262.68
2019-02-16T12:53:13.841Z,99263.22
2019-02-16T12:56:04.793Z,99258.91
2019-02-16T12:58:48.703Z,99256.19
2019-02-16T13:01:35.888Z,99262.52
2019-02-16T13:04:21.464Z,99254.17
2019-02-16T13:07:12.757Z,99257.23
2019-02-16T13:09:57.750Z,99258.64
2019-02-16T13:12:51.736Z,99260.20
2019-02-16T13:15:32.401Z,99255.64
2019-02-16T13:18:19.463Z,99246.61
2019-02-16T13:20:58.101Z,99243.39
2019-02-16T13:23:34.048Z,99244.59
2019-02-16T13:26:25.310Z,99242.47
2019-02-16T13:29:16.420Z,99238.33
2019-02-16T13:31:54.792Z,99232.53
2019-02-16T13:34:31.121Z,99232.53
2019-02-16T13:37:18.139Z,99233.78
2019-02-16T13:40:21.439Z,99230.14
2019-02-16T13:43:15.488Z,99232.70
2019-02-16T13:46:16.869Z,99227.31
2019-02-16T13:49:03.365Z,99234.35
2019-02-16T13:51:50.872Z,99234.66
2019-02-16T13:54:39.177Z,99223.87
2019-02-16T13:57:30.792Z,99225.85
2019-02-16T14:00:18.830Z,99226.38
2019-02-16T14:03:19.168Z,99220.88
2019-02-16T14:06:22.760Z,99221.52
2019-02-16T14:09:07.682Z,99223.47
2019-02-16T14:11:55.926Z,99226.55
2019-02-16T14:14:50.263Z,99213.20
2019-02-16T14:17:31.909Z,99218.74
2019-02-16T14:20:01.173Z,99213.77
2019-02-16T14:22:30.485Z,99210.99
2019-02-16T14:25:01.478Z,99210.04
2019-02-16T14:27:30.757Z,99209.45
2019-02-16T14:30:00.019Z,99203.17
2019-02-16T14:32:29.334Z,99205.88
2019-02-16T14:34:58.609Z,99203.16
2019-02-16T14:37:52.978Z,99202.02
2019-02-16T14:40:23.445Z,99198.34
2019-02-16T14:42:52.750Z,99199.83
2019-02-16T14:45:22.055Z,99193.63
2019-02-16T14:47:51.264Z,99196.27
2019-02-16T14:50:21.172Z,99192.77
2019-02-16T14:52:51.758Z,99191.70
2019-02-16T14:55:23.798Z,99193.79
2019-02-16T14:57:54.361Z,99193.70
2019-02-16T15:00:24.548Z,99186.04
2019-02-16T15:02:55.403Z,99189.70
2019-02-16T15:05:26.190Z,99188.33
2019-02-16T15:07:56.636Z,99180.77
2019-02-16T15:10:27.314Z,99180.28
2019-02-16T15:12:57.543Z,99183.03
2019-02-16T15:15:27.339Z,99180.55
2019-02-16T15:17:58.030Z,99182.84
2019-02-16T15:20:29.486Z,99188.52
2019-02-16T15:23:01.534Z,99186.06
2019-02-16T15:25:32.358Z,99188.59
2019-02-16T15:28:03.993Z,99186.01
2019-02-16T15:30:37.532Z,99181.92
2019-02-16T15:33:10.374Z,99178.11
2019-02-16T15:36:01.561Z,99189.66
2019-02-16T15:41:22.618Z,99185.84
2019-02-16T15:43:53.225Z,99178.19
2019-02-16T15:46:22.540Z,99187.69
2019-02-16T15:48:51.829Z,99180.38
2019-02-16T15:51:21.085Z,99183.10
2019-02-16T15:53:52.211Z,99188.82
2019-02-16T15:56:21.810Z,99188.75
2019-02-16T15:59:01.921Z,99192.47
2019-02-16T16:01:55.543Z,99182.21
2019-02-16T16:04:28.996Z,99180.27
2019-02-16T16:07:00.020Z,99179.98
2019-02-16T16:09:51.641Z,99180.83
2019-02-16T16:12:27.335Z,99183.28
2019-02-16T16:15:15.632Z,99179.09
2019-02-16T16:17:58.720Z,99181.21
2019-02-16T16:20:47.845Z,99185.93
2019-02-16T16:23:48.412Z,99179.31
2019-02-16T16:26:43.062Z,99181.73
2019-02-16T16:29:31.864Z,99170.83
2019-02-16T16:32:14.292Z,99169.00
2019-02-16T16:35:04.118Z,99167.55
2019-02-16T16:37:46.991Z,99170.13
2019-02-16T16:40:23.731Z,99175.31
2019-02-16T16:43:04.243Z,99173.24
2019-02-16T16:45:42.596Z,99167.02
2019-02-16T16:48:21.887Z,99168.22
2019-02-16T16:51:00.443Z,99165.11
2019-02-16T16:53:44.801Z,99164.14
2019-02-16T16:56:33.638Z,99174.19
2019-02-16T16:59:19.982Z,99173.70
2019-02-16T17:02:07.206Z,99161.02
2019-02-16T17:04:55.457Z,99163.69
2019-02-16T17:07:59.116Z,99170.11
2019-02-16T17:10:40.900Z,99175.91
2019-02-16T17:13:32.007Z,99175.12
2019-02-16T17:16:12.098Z,99178.43
2019-02-16T17:19:03.462Z,99183.97
2019-02-16T17:21:43.512Z,99174.99
2019-02-16T17:24:20.417Z,99181.44
2019-02-16T17:27:02.366Z,99184.13
2019-02-16T17:29:37.585Z,99192.48
2019-02-16T17:32:41.217Z,99200.92
2019-02-16T17:35:30.334Z,99197.80
2019-02-16T17:38:27.473Z,99194.09
2019-02-16T17:41:33.818Z,99198.75
2019-02-16T17:44:10.933Z,99202.06
2019-02-16T17:47:13.973Z,99201.67
2019-02-16T17:50:03.053Z,99199.23
2019-02-16T17:52:50.220Z,99207.63
2019-02-16T17:55:46.341Z,99211.16
2019-02-16T17:58:33.162Z,99211.62
2019-02-16T18:01:10.188Z,99210.92
2019-02-16T18:03:58.441Z,99221.00
2019-02-16T18:06:47.384Z,99220.02
2019-02-16T18:09:42.457Z,99214.83
2019-02-16T18:12:21.801Z,99215.80
2019-02-16T18:15:00.605Z,99215.87
2019-02-16T18:18:07.454Z,99215.74
2019-02-16T18:21:08.787Z,99224.05
2019-02-16T18:23:46.133Z,99228.74
2019-02-16T18:26:40.300Z,99229.67
2019-02-16T18:29:37.654Z,99233.14
2019-02-16T18:32:31.265Z,99224.75
2019-02-16T18:35:24.183Z,99227.72
2019-02-16T18:38:15.114Z,99227.72
2019-02-16T18:41:01.441Z,99224.03
2019-02-16T18:43:49.629Z,99222.44
2019-02-16T18:46:44.219Z,99221.80
2019-02-16T18:49:48.027Z,99218.09
2019-02-16T18:52:27.355Z,99220.70
2019-02-16T18:55:15.152Z,99214.45
2019-02-16T18:58:03.408Z,99217.84
2019-02-16T19:00:54.444Z,99222.48
2019-02-16T19:03:41.057Z,99220.44
2019-02-16T19:06:37.339Z,99227.23
2019-02-16T19:09:34.828Z,99223.57
2019-02-16T19:12:42.271Z,99228.22
2019-02-16T19:15:21.285Z,99223.57
2019-02-16T19:17:57.630Z,99221.97
2019-02-16T19:20:46.386Z,99235.05
2019-02-16T19:23:49.748Z,99235.30
2019-02-16T19:26:50.143Z,99233.62
2019-02-16T19:29:56.744Z,99233.23
2019-02-16T19:33:03.223Z,99236.51
2019-02-16T19:35:44.290Z,99231.56
2019-02-16T19:38:29.975Z,99226.67
2019-02-16T19:41:16.358Z,99234.11
2019-02-16T19:44:20.182Z,99222.56
2019-02-16T19:47:14.229Z,99225.62
2019-02-16T19:50:02.469Z,99223.91
2019-02-16T19:52:50.726Z,99217.67
2019-02-16T19:55:30.610Z,99215.46
2019-02-16T19:58:24.998Z,99213.94
2019-02-16T20:01:01.969Z,99217.16
2019-02-16T20:03:52.617Z,99208.30
2019-02-16T20:06:53.091Z,99210.20
2019-02-16T20:09:33.964Z,99208.11
2019-02-16T20:12:22.101Z,99209.58
2019-02-16T20:15:16.866Z,99208.24
2019-02-16T20:18:11.408Z,99207.04
2019-02-16T20:20:59.988Z,99205.30
2019-02-16T20:23:57.572Z,99204.83
2019-02-16T20:27:04.140Z,99199.95
2019-02-16T20:29:55.310Z,99209.31
2019-02-16T20:32:39.208Z,99200.84
2019-02-16T20:35:33.234Z,99205.77
2019-02-16T20:38:12.564Z,99205.28
2019-02-16T20:40:52.804Z,99205.91
2019-02-16T20:43:27.857Z,99202.17
2019-02-16T20:46:16.803Z,99205.22
2019-02-16T20:48:58.804Z,99195.53
2019-02-16T20:51:47.118Z,99210.33
2019-02-16T20:54:38.200Z,99207.28
2019-02-16T20:57:13.974Z,99202.61
2019-02-16T21:00:02.334Z,99205.80
2019-02-16T21:02:50.620Z,99199.84
2019-02-16T21:05:38.561Z,99195.45
2019-02-16T21:08:26.784Z,99201.21
2019-02-16T21:11:14.148Z,99198.34
2019-02-16T21:14:02.351Z,99192.21
2019-02-16T21:16:45.512Z,99192.00
2019-02-16T21:19:23.403Z,99191.76
2019-02-16T21:22:10.682Z,99184.53
2019-02-16T21:24:51.693Z,99189.41
2019-02-16T21:27:25.947Z,99188.05
2019-02-16T21:30:17.214Z,99190.19
2019-02-16T21:33:05.520Z,99189.41
2019-02-16T21:35:59.792Z,99196.87
2019-02-16T21:38:48.216Z,99198.03
2019-02-16T21:41:24.415Z,99190.83
2019-02-16T21:44:09.995Z,99191.92
2019-02-16T21:46:52.805Z,99189.90
2019-02-16T21:49:50.592Z,99196.27
2019-02-16T21:52:51.180Z,99195.71
2019-02-16T21:55:48.874Z,99199.54
2019-02-16T21:58:35.930Z,99192.42
2019-02-16T22:01:25.341Z,99191.98
2019-02-16T22:04:28.788Z,99197.52
2019-02-16T22:07:22.160Z,99191.66
2019-02-16T22:10:01.547Z,99192.75
2019-02-16T22:13:05.220Z,99193.98
2019-02-16T22:15:34.762Z,99185.67
2019-02-16T22:18:04.524Z,99185.28
2019-02-16T22:20:33.885Z,99187.70
2019-02-16T22:23:03.187Z,99178.64
2019-02-16T22:25:32.656Z,99184.98
2019-02-16T22:28:01.933Z,99177.03
2019-02-16T22:30:31.487Z,99186.45
2019-02-16T22:33:01.208Z,99182.45
2019-02-16T22:35:32.796Z,99186.77
2019-02-16T22:38:02.078Z,99185.05
2019-02-16T22:40:31.605Z,99177.47
2019-02-16T22:43:00.996Z,99189.37
2019-02-16T22:45:30.259Z,99187.22
2019-02-16T22:47:59.570Z,99182.62
2019-02-16T22:50:29.071Z,99183.50
2019-02-16T22:52:58.336Z,99189.43
2019-02-16T22:55:27.679Z,99195.11
2019-02-16T22:57:59.458Z,99185.91
2019-02-16T23:00:47.001Z,99181.53
2019-02-16T23:03:17.075Z,99184.22
2019-02-16T23:05:46.423Z,99186.19
2019-02-16T23:08:16.171Z,99177.49
2019-02-16T23:10:46.677Z,99187.28
2019-02-16T23:13:18.018Z,99179.38
2019-02-16T23:15:47.672Z,99180.72
2019-02-16T23:18:17.301Z,99178.27
2019-02-16T23:20:47.765Z,99181.32
2019-02-16T23:23:17.538Z,99177.81
2019-02-16T23:25:46.823Z,99178.97
2019-02-16T23:28:16.141Z,99174.42
2019-02-16T23:30:45.385Z,99166.10
2019-02-16T23:33:14.660Z,99176.31
2019-02-16T23:35:43.951Z,99172.80
2019-02-16T23:38:13.290Z,99173.58
2019-02-16T23:40:42.618Z,99168.69
2019-02-16T23:43:11.985Z,99162.50
2019-02-16T23:45:41.249Z,99165.25
2019-02-16T23:48:10.541Z,99160.66
2019-02-16T23:50:39.799Z,99159.90
2019-02-16T23:53:09.192Z,99154.53
2019-02-16T23:55:38.456Z,99159.66
2019-02-16T23:58:07.721Z,99163.70
